createdAt,value
2022-12-31T00:01:13.053Z,1.60
2022-12-31T00:03:40.156Z,2.00
2022-12-31T00:06:19.995Z,1.92
2022-12-31T00:08:47.356Z,1.65
2022-12-31T00:11:14.398Z,1.88
2022-12-31T00:13:41.176Z,1.80
2022-12-31T00:16:14.101Z,1.70
2022-12-31T00:18:44.114Z,2.15
2022-12-31T00:21:10.812Z,1.73
2022-12-31T00:23:37.359Z,1.92
2022-12-31T00:26:12.415Z,1.95
2022-12-31T00:28:39.627Z,1.98
2022-12-31T00:31:10.416Z,2.00
2022-12-31T00:33:37.243Z,1.67
2022-12-31T00:36:14.753Z,1.77
2022-12-31T00:38:42.980Z,2.35
2022-12-31T00:41:09.404Z,2.00
2022-12-31T00:43:36.424Z,2.63
2022-12-31T00:46:03.793Z,2.50
2022-12-31T00:48:30.699Z,1.70
2022-12-31T00:50:57.896Z,1.70
2022-12-31T00:53:24.533Z,1.98
2022-12-31T00:55:51.060Z,2.25
2022-12-31T00:58:17.476Z,3.40
2022-12-31T01:00:43.961Z,1.70
2022-12-31T01:03:10.419Z,1.90
2022-12-31T01:05:38.002Z,2.35
2022-12-31T01:08:05.499Z,1.83
2022-12-31T01:10:50.318Z,1.70
2022-12-31T01:13:16.783Z,1.95
2022-12-31T01:15:43.232Z,2.22
2022-12-31T01:18:09.973Z,2.42
2022-12-31T01:20:39.012Z,1.52
2022-12-31T01:23:06.064Z,2.40
2022-12-31T01:25:36.349Z,2.78
2022-12-31T01:28:03.671Z,2.15
2022-12-31T01:30:30.105Z,2.30
2022-12-31T01:32:56.637Z,2.03
2022-12-31T01:35:23.324Z,2.58
2022-12-31T01:37:49.823Z,2.35
2022-12-31T01:40:16.376Z,3.38
2022-12-31T01:42:42.772Z,2.45
2022-12-31T01:45:13.483Z,3.15
2022-12-31T01:47:43.768Z,2.60
2022-12-31T01:50:17.706Z,4.22
2022-12-31T01:52:48.488Z,3.47
2022-12-31T01:55:41.843Z,4.47
2022-12-31T01:58:12.638Z,3.83
2022-12-31T02:00:39.079Z,3.45
2022-12-31T02:03:08.248Z,4.10
2022-12-31T02:06:00.760Z,3.42
2022-12-31T02:08:27.184Z,3.55
2022-12-31T02:10:53.579Z,4.80
2022-12-31T02:13:20.137Z,3.60
2022-12-31T02:16:05.011Z,3.90
2022-12-31T02:18:49.946Z,4.18
2022-12-31T02:21:19.826Z,4.63
2022-12-31T02:24:02.503Z,4.10
2022-12-31T02:26:56.926Z,4.93
2022-12-31T02:29:54.318Z,3.45
2022-12-31T02:32:42.450Z,3.13
2022-12-31T02:35:10.923Z,3.78
2022-12-31T02:37:38.885Z,3.08
2022-12-31T02:40:08.371Z,4.15
2022-12-31T02:42:34.793Z,3.22
2022-12-31T02:45:01.240Z,3.38
2022-12-31T02:47:46.073Z,4.50
2022-12-31T02:50:25.945Z,3.53
2022-12-31T02:52:55.262Z,4.15
2022-12-31T02:55:48.301Z,3.33
2022-12-31T02:59:00.025Z,4.00
2022-12-31T03:01:49.565Z,3.88
2022-12-31T03:04:37.384Z,2.88
2022-12-31T03:07:06.543Z,4.10
2022-12-31T03:09:34.322Z,3.15
2022-12-31T03:12:20.063Z,3.40
2022-12-31T03:14:46.685Z,3.70
2022-12-31T03:17:13.278Z,3.22
2022-12-31T03:19:58.612Z,2.70
2022-12-31T03:22:28.148Z,3.17
2022-12-31T03:25:26.860Z,2.90
2022-12-31T03:27:53.924Z,3.42
2022-12-31T03:30:22.178Z,2.90
2022-12-31T03:32:49.229Z,3.05
2022-12-31T03:35:16.804Z,3.92
2022-12-31T03:37:43.689Z,2.42
2022-12-31T03:40:11.529Z,2.88
2022-12-31T03:42:37.960Z,3.60
2022-12-31T03:45:05.196Z,4.07
2022-12-31T03:47:31.934Z,2.10
2022-12-31T03:49:58.398Z,4.47
2022-12-31T03:52:24.960Z,2.53
2022-12-31T03:54:51.388Z,2.17
2022-12-31T03:57:17.830Z,3.78
2022-12-31T03:59:44.242Z,1.73
2022-12-31T04:02:10.976Z,2.47
2022-12-31T04:04:37.509Z,2.28
2022-12-31T04:07:03.972Z,2.63
2022-12-31T04:09:30.393Z,2.13
2022-12-31T04:11:56.859Z,2.47
2022-12-31T04:14:23.354Z,2.30
2022-12-31T04:16:49.932Z,3.08
2022-12-31T04:19:16.394Z,2.20
2022-12-31T04:21:42.924Z,1.90
2022-12-31T04:24:09.410Z,2.28
2022-12-31T04:26:36.044Z,1.90
2022-12-31T04:29:02.611Z,2.88
2022-12-31T04:31:29.070Z,1.67
2022-12-31T04:33:55.494Z,1.73
2022-12-31T04:36:21.946Z,1.73
2022-12-31T04:38:48.387Z,3.08
2022-12-31T04:41:17.636Z,1.75
2022-12-31T04:43:45.812Z,1.40
2022-12-31T04:46:12.844Z,2.45
2022-12-31T04:48:39.582Z,1.70
2022-12-31T04:51:06.147Z,2.00
2022-12-31T04:53:32.682Z,2.10
2022-12-31T04:55:59.104Z,1.55
2022-12-31T04:58:25.551Z,1.50
2022-12-31T05:00:54.431Z,1.42
2022-12-31T05:03:23.026Z,2.25
2022-12-31T05:05:50.148Z,2.08
2022-12-31T05:08:17.832Z,2.05
2022-12-31T05:10:46.499Z,1.60
2022-12-31T05:13:13.722Z,1.55
2022-12-31T05:15:40.775Z,1.92
2022-12-31T05:18:08.145Z,2.60
2022-12-31T05:20:34.939Z,2.20
2022-12-31T05:23:04.677Z,1.83
2022-12-31T05:25:31.142Z,2.38
2022-12-31T05:28:00.583Z,1.75
2022-12-31T05:30:27.353Z,1.70
2022-12-31T05:32:53.763Z,1.17
2022-12-31T05:35:20.228Z,2.17
2022-12-31T05:37:46.689Z,2.97
2022-12-31T05:40:13.120Z,1.25
2022-12-31T05:42:39.788Z,1.30
2022-12-31T05:45:06.776Z,1.15
2022-12-31T05:47:33.299Z,2.75
2022-12-31T05:49:59.732Z,1.63
2022-12-31T05:52:26.649Z,1.55
2022-12-31T05:54:53.164Z,2.40
2022-12-31T05:57:19.658Z,1.55
2022-12-31T05:59:46.089Z,1.98
2022-12-31T06:02:12.494Z,2.05
2022-12-31T06:04:38.931Z,1.27
2022-12-31T06:07:05.393Z,2.05
2022-12-31T06:09:31.789Z,1.88
2022-12-31T06:11:58.221Z,2.08
2022-12-31T06:14:24.669Z,2.20
2022-12-31T06:16:51.115Z,1.60
2022-12-31T06:19:17.519Z,3.25
2022-12-31T06:21:43.938Z,1.50
2022-12-31T06:24:10.407Z,2.45
2022-12-31T06:26:36.821Z,1.85
2022-12-31T06:29:03.386Z,1.60
2022-12-31T06:31:29.886Z,1.70
2022-12-31T06:33:56.373Z,1.90
2022-12-31T06:36:23.001Z,2.33
2022-12-31T06:38:49.630Z,2.05
2022-12-31T06:41:18.158Z,1.55
2022-12-31T06:43:45.134Z,2.03
2022-12-31T06:46:14.546Z,1.60
2022-12-31T06:48:43.033Z,2.15
2022-12-31T06:51:16.795Z,1.65
2022-12-31T06:53:48.036Z,1.67
2022-12-31T06:56:19.088Z,2.08
2022-12-31T06:58:46.205Z,1.20
2022-12-31T07:01:31.535Z,1.60
2022-12-31T07:04:07.137Z,1.70
2022-12-31T07:06:35.675Z,2.17
2022-12-31T07:09:22.179Z,1.50
2022-12-31T07:12:02.500Z,1.92
2022-12-31T07:14:49.964Z,2.05
2022-12-31T07:17:35.159Z,2.08
2022-12-31T07:20:07.661Z,2.42
2022-12-31T07:22:34.366Z,1.77
2022-12-31T07:25:01.026Z,3.45
2022-12-31T07:27:42.243Z,1.77
2022-12-31T07:30:15.104Z,1.63
2022-12-31T07:32:50.513Z,2.08
2022-12-31T07:35:39.058Z,1.60
2022-12-31T07:38:30.254Z,1.67
2022-12-31T07:41:34.060Z,2.15
2022-12-31T07:44:28.431Z,2.50
2022-12-31T07:46:55.650Z,1.70
2022-12-31T07:49:23.053Z,2.88
2022-12-31T07:51:49.829Z,1.98
2022-12-31T07:54:16.239Z,1.70
2022-12-31T07:56:43.398Z,2.15
2022-12-31T07:59:19.680Z,1.77
2022-12-31T08:02:01.245Z,1.63
2022-12-31T08:04:43.045Z,1.80
2022-12-31T08:07:18.111Z,1.92
2022-12-31T08:10:20.136Z,1.63
2022-12-31T08:12:49.669Z,1.60
2022-12-31T08:15:18.147Z,1.60
2022-12-31T08:17:44.726Z,1.50
2022-12-31T08:20:15.500Z,2.10
2022-12-31T08:23:00.056Z,1.88
2022-12-31T08:25:47.752Z,1.67
2022-12-31T08:28:23.177Z,1.55
2022-12-31T08:31:17.628Z,1.80
2022-12-31T08:33:49.583Z,1.90
2022-12-31T08:36:46.510Z,2.63
2022-12-31T08:39:12.852Z,2.00
2022-12-31T08:41:48.317Z,1.88
2022-12-31T08:44:40.701Z,2.17
2022-12-31T08:47:25.892Z,1.92
2022-12-31T08:49:52.701Z,1.92
2022-12-31T08:52:23.673Z,2.70
2022-12-31T08:54:50.560Z,2.53
2022-12-31T08:57:42.427Z,1.92
2022-12-31T09:00:16.286Z,1.95
2022-12-31T09:02:54.894Z,1.70
2022-12-31T09:05:26.737Z,2.63
2022-12-31T09:08:37.445Z,3.78
2022-12-31T09:11:22.866Z,2.70
2022-12-31T09:14:28.135Z,2.88
2022-12-31T09:17:16.442Z,3.08
2022-12-31T09:19:42.838Z,2.42
2022-12-31T09:22:10.683Z,2.25
2022-12-31T09:24:37.411Z,2.78
2022-12-31T09:27:28.315Z,2.10
2022-12-31T09:30:08.466Z,2.35
2022-12-31T09:32:40.755Z,2.30
2022-12-31T09:35:30.719Z,2.67
2022-12-31T09:38:11.836Z,2.40
2022-12-31T09:40:53.744Z,2.85
2022-12-31T09:43:39.538Z,3.30
2022-12-31T09:46:42.802Z,3.58
2022-12-31T09:49:18.123Z,2.50
2022-12-31T09:51:51.306Z,2.75
2022-12-31T09:54:45.172Z,3.35
2022-12-31T09:57:27.923Z,1.98
2022-12-31T09:59:58.297Z,2.35
2022-12-31T10:02:30.855Z,2.65
2022-12-31T10:05:03.925Z,4.45
2022-12-31T10:07:52.481Z,2.78
2022-12-31T10:10:31.042Z,2.83
2022-12-31T10:13:07.322Z,2.50
2022-12-31T10:16:11.881Z,3.63
2022-12-31T10:18:57.366Z,2.85
2022-12-31T10:21:55.041Z,3.00
2022-12-31T10:24:39.470Z,2.60
2022-12-31T10:27:28.384Z,3.22
2022-12-31T10:30:16.647Z,3.60
2022-12-31T10:32:43.513Z,2.80
2022-12-31T10:35:15.895Z,3.40
2022-12-31T10:37:52.871Z,2.33
2022-12-31T10:40:30.299Z,2.28
2022-12-31T10:43:28.986Z,2.92
2022-12-31T10:46:22.908Z,2.45
2022-12-31T10:48:57.577Z,2.80
2022-12-31T10:52:00.178Z,2.40
2022-12-31T10:54:44.269Z,2.60
2022-12-31T10:57:36.383Z,2.72
2022-12-31T11:00:14.921Z,2.45
2022-12-31T11:03:23.454Z,2.65
2022-12-31T11:06:31.337Z,4.00
2022-12-31T11:09:35.659Z,4.38
2022-12-31T11:12:15.975Z,4.13
2022-12-31T11:15:00.608Z,3.95
2022-12-31T11:17:35.980Z,4.15
2022-12-31T11:20:29.760Z,2.53
2022-12-31T11:23:30.331Z,3.75
2022-12-31T11:26:29.330Z,2.88
2022-12-31T11:29:02.157Z,2.80
2022-12-31T11:31:46.985Z,2.80
2022-12-31T11:34:32.004Z,2.95
2022-12-31T11:37:28.912Z,2.45
2022-12-31T11:40:08.189Z,2.25
2022-12-31T11:42:59.747Z,2.60
2022-12-31T11:45:50.835Z,3.63
2022-12-31T11:48:31.327Z,5.22
2022-12-31T11:51:29.702Z,4.15
2022-12-31T11:54:26.708Z,2.83
2022-12-31T11:57:12.319Z,5.13
2022-12-31T11:59:38.791Z,2.92
2022-12-31T12:02:35.568Z,2.67
2022-12-31T12:05:10.555Z,3.90
2022-12-31T12:07:37.695Z,3.65
2022-12-31T12:10:29.130Z,2.88
2022-12-31T12:13:12.357Z,2.63
2022-12-31T12:15:39.449Z,2.05
2022-12-31T12:18:18.321Z,2.20
2022-12-31T12:20:46.362Z,3.30
2022-12-31T12:23:16.476Z,3.40
2022-12-31T12:25:44.416Z,3.55
2022-12-31T12:28:23.505Z,2.72
2022-12-31T12:31:01.943Z,2.60
2022-12-31T12:33:30.347Z,3.33
2022-12-31T12:36:11.846Z,3.08
2022-12-31T12:38:38.556Z,3.25
2022-12-31T12:41:09.925Z,2.58
2022-12-31T12:43:37.597Z,5.32
2022-12-31T12:46:19.296Z,2.92
2022-12-31T12:48:49.400Z,2.40
2022-12-31T12:51:21.864Z,2.17
2022-12-31T12:54:00.584Z,3.67
2022-12-31T12:56:42.303Z,2.58
2022-12-31T12:59:27.683Z,2.40
2022-12-31T13:02:31.414Z,2.38
2022-12-31T13:04:57.850Z,3.05
2022-12-31T13:07:55.298Z,3.22
2022-12-31T13:10:29.753Z,2.75
2022-12-31T13:13:23.949Z,3.85
2022-12-31T13:16:07.530Z,2.63
2022-12-31T13:18:41.305Z,7.88
2022-12-31T13:21:22.654Z,2.53
2022-12-31T13:23:55.586Z,2.33
2022-12-31T13:26:34.093Z,2.83
2022-12-31T13:29:02.070Z,3.65
2022-12-31T13:31:36.777Z,2.97
2022-12-31T13:34:07.388Z,3.10
2022-12-31T13:36:35.454Z,2.53
2022-12-31T13:39:03.270Z,2.40
2022-12-31T13:41:33.250Z,2.15
2022-12-31T13:44:14.175Z,2.40
2022-12-31T13:46:58.810Z,2.78
2022-12-31T13:49:28.736Z,2.05
2022-12-31T13:52:01.160Z,2.80
2022-12-31T13:54:42.744Z,2.28
2022-12-31T13:57:17.642Z,2.72
2022-12-31T13:59:48.603Z,1.80
2022-12-31T14:02:30.415Z,2.00
2022-12-31T14:05:19.244Z,2.17
2022-12-31T14:07:53.712Z,2.60
2022-12-31T14:10:31.596Z,2.08
2022-12-31T14:13:17.190Z,2.33
2022-12-31T14:16:24.110Z,2.47
2022-12-31T14:19:01.194Z,3.33
2022-12-31T14:21:45.986Z,2.17
2022-12-31T14:24:33.138Z,2.33
2022-12-31T14:27:02.343Z,2.03
2022-12-31T14:29:34.774Z,3.15
2022-12-31T14:32:12.849Z,2.20
2022-12-31T14:34:56.296Z,2.92
2022-12-31T14:37:47.679Z,2.13
2022-12-31T14:40:41.407Z,2.92
2022-12-31T14:43:49.132Z,2.03
2022-12-31T14:46:40.185Z,2.10
2022-12-31T14:49:43.211Z,2.47
2022-12-31T14:52:15.678Z,2.67
2022-12-31T14:54:42.435Z,3.10
2022-12-31T14:57:23.733Z,2.55
2022-12-31T14:59:56.662Z,3.20
2022-12-31T15:02:34.366Z,3.03
2022-12-31T15:05:10.228Z,3.50
2022-12-31T15:07:41.376Z,3.05
2022-12-31T15:10:17.744Z,2.67
2022-12-31T15:12:56.434Z,3.10
2022-12-31T15:15:41.038Z,2.58
2022-12-31T15:18:13.391Z,2.25
2022-12-31T15:20:47.851Z,2.90
2022-12-31T15:23:21.251Z,4.85
2022-12-31T15:25:49.483Z,4.80
2022-12-31T15:28:45.310Z,4.38
2022-12-31T15:31:19.548Z,7.47
2022-12-31T15:33:54.819Z,5.00
2022-12-31T15:36:26.898Z,7.10
2022-12-31T15:39:10.454Z,5.07
2022-12-31T15:42:10.409Z,2.97
2022-12-31T15:44:33.222Z,2.88
2022-12-31T15:47:03.189Z,3.70
2022-12-31T15:49:36.981Z,4.53
2022-12-31T15:52:30.523Z,3.47
2022-12-31T15:54:57.883Z,3.83
2022-12-31T15:57:33.453Z,3.20
2022-12-31T16:00:01.444Z,2.58
2022-12-31T16:02:28.804Z,2.92
2022-12-31T16:04:55.640Z,3.30
2022-12-31T16:07:23.664Z,2.58
2022-12-31T16:09:55.502Z,2.53
2022-12-31T16:12:27.860Z,3.00
2022-12-31T16:14:59.327Z,3.28
2022-12-31T16:17:35.680Z,5.55
2022-12-31T16:20:20.902Z,3.28
2022-12-31T16:22:57.397Z,3.75
2022-12-31T16:25:33.139Z,3.83
2022-12-31T16:28:01.928Z,4.28
2022-12-31T16:30:32.893Z,5.18
2022-12-31T16:33:02.855Z,4.22
2022-12-31T16:35:34.482Z,4.47
2022-12-31T16:38:07.367Z,3.25
2022-12-31T16:40:34.353Z,2.90
2022-12-31T16:43:01.053Z,3.17
2022-12-31T16:45:38.558Z,2.65
2022-12-31T16:48:16.749Z,2.78
2022-12-31T16:50:54.967Z,3.03
2022-12-31T16:53:25.968Z,3.00
2022-12-31T16:55:56.122Z,4.00
2022-12-31T16:58:27.144Z,3.72
2022-12-31T17:00:56.030Z,2.20
2022-12-31T17:03:24.188Z,3.58
2022-12-31T17:06:06.338Z,3.65
2022-12-31T17:08:43.457Z,3.20
2022-12-31T17:11:24.218Z,3.50
2022-12-31T17:14:05.596Z,4.28
2022-12-31T17:16:33.889Z,4.13
2022-12-31T17:19:00.322Z,3.30
2022-12-31T17:21:30.569Z,3.30
2022-12-31T17:24:01.238Z,2.50
2022-12-31T17:26:29.702Z,3.00
2022-12-31T17:28:58.072Z,4.00
2022-12-31T17:31:33.573Z,5.63
2022-12-31T17:34:22.079Z,10.90
2022-12-31T17:36:57.743Z,10.20
2022-12-31T17:39:24.841Z,7.40
2022-12-31T17:41:52.910Z,5.68
2022-12-31T17:44:29.069Z,5.22
2022-12-31T17:46:55.664Z,6.80
2022-12-31T17:49:27.205Z,5.90
2022-12-31T17:51:53.733Z,8.13
2022-12-31T17:54:20.157Z,6.13
2022-12-31T17:56:47.088Z,4.60
2022-12-31T17:59:24.422Z,3.95
2022-12-31T18:01:50.988Z,4.85
2022-12-31T18:04:18.560Z,4.13
2022-12-31T18:06:45.336Z,5.63
2022-12-31T18:09:11.789Z,5.43
2022-12-31T18:11:38.693Z,4.78
2022-12-31T18:14:05.123Z,4.35
2022-12-31T18:16:31.627Z,3.92
2022-12-31T18:19:00.082Z,4.22
2022-12-31T18:21:30.329Z,3.58
2022-12-31T18:26:23.979Z,3.25
2022-12-31T18:28:50.968Z,3.25
2022-12-31T18:31:26.118Z,3.22
2022-12-31T18:33:53.579Z,3.28
2022-12-31T18:36:21.554Z,3.67
2022-12-31T18:38:48.355Z,3.35
2022-12-31T18:41:29.348Z,3.45
2022-12-31T18:43:56.177Z,8.18
2022-12-31T18:46:23.947Z,7.22
2022-12-31T18:48:50.393Z,5.40
2022-12-31T18:51:20.354Z,4.30
2022-12-31T18:53:47.022Z,3.60
2022-12-31T18:56:18.557Z,3.40
2022-12-31T18:58:45.571Z,5.55
2022-12-31T19:01:32.811Z,3.42
2022-12-31T19:04:01.662Z,5.72
2022-12-31T19:06:29.467Z,4.72
2022-12-31T19:08:56.354Z,3.92
2022-12-31T19:11:23.536Z,3.00
2022-12-31T19:13:50.167Z,2.83
2022-12-31T19:16:17.871Z,2.90
2022-12-31T19:18:44.597Z,4.63
2022-12-31T19:21:22.554Z,2.90
2022-12-31T19:23:52.443Z,7.63
2022-12-31T19:26:20.812Z,4.93
2022-12-31T19:28:48.513Z,3.97
2022-12-31T19:31:15.657Z,3.97
2022-12-31T19:33:42.678Z,3.30
2022-12-31T19:36:16.898Z,2.80
2022-12-31T19:38:43.962Z,2.80
2022-12-31T19:41:16.029Z,2.63
2022-12-31T19:43:42.497Z,2.35
2022-12-31T19:46:16.302Z,2.85
2022-12-31T19:48:43.389Z,3.53
2022-12-31T19:51:11.943Z,2.22
2022-12-31T19:53:38.772Z,3.72
2022-12-31T19:56:05.637Z,2.40
2022-12-31T19:58:32.089Z,2.72
2022-12-31T20:01:02.846Z,2.92
2022-12-31T20:03:30.082Z,2.90
2022-12-31T20:06:08.448Z,2.95
2022-12-31T20:08:36.561Z,4.97
2022-12-31T20:11:12.943Z,2.90
2022-12-31T20:13:42.894Z,3.63
2022-12-31T20:16:13.312Z,2.88
2022-12-31T20:18:40.801Z,3.10
2022-12-31T20:21:13.186Z,3.08
2022-12-31T20:23:39.919Z,2.70
2022-12-31T20:26:06.451Z,3.05
2022-12-31T20:28:32.917Z,2.50
2022-12-31T20:30:59.495Z,2.80
2022-12-31T20:33:25.949Z,2.80
2022-12-31T20:35:52.809Z,2.60
2022-12-31T20:38:22.644Z,2.47
2022-12-31T20:40:49.183Z,2.50
2022-12-31T20:43:15.590Z,2.78
2022-12-31T20:45:42.114Z,2.92
2022-12-31T20:48:08.586Z,3.70
2022-12-31T20:50:35.221Z,3.05
2022-12-31T20:53:02.026Z,2.92
2022-12-31T20:55:30.610Z,4.15
2022-12-31T20:57:57.042Z,3.10
2022-12-31T21:00:23.507Z,3.88
2022-12-31T21:03:00.226Z,3.47
2022-12-31T21:05:30.659Z,2.60
2022-12-31T21:07:57.244Z,2.42
2022-12-31T21:10:23.883Z,3.03
2022-12-31T21:12:53.328Z,2.50
2022-12-31T21:15:21.132Z,2.70
2022-12-31T21:17:47.575Z,3.10
2022-12-31T21:20:14.240Z,2.83
2022-12-31T21:22:40.669Z,2.42
2022-12-31T21:25:07.491Z,2.70
2022-12-31T21:27:35.497Z,2.50
2022-12-31T21:30:18.180Z,2.33
2022-12-31T21:32:45.484Z,3.20
2022-12-31T21:35:42.246Z,3.20
2022-12-31T21:38:06.146Z,3.00
2022-12-31T21:40:32.864Z,2.83
2022-12-31T21:42:59.464Z,2.72
2022-12-31T21:45:26.003Z,2.78
2022-12-31T21:48:11.072Z,2.88
2022-12-31T21:50:37.517Z,4.75
2022-12-31T21:53:03.953Z,3.22
2022-12-31T21:55:48.901Z,3.20
2022-12-31T21:58:25.853Z,3.60
2022-12-31T22:01:11.949Z,2.83
2022-12-31T22:03:38.590Z,3.30
2022-12-31T22:06:16.096Z,2.95
2022-12-31T22:08:44.650Z,3.28
2022-12-31T22:11:11.815Z,2.85
2022-12-31T22:13:39.082Z,2.53
2022-12-31T22:16:06.401Z,2.80
2022-12-31T22:18:35.227Z,2.95
2022-12-31T22:21:24.515Z,3.38
2022-12-31T22:23:52.556Z,3.35
2022-12-31T22:26:21.278Z,3.00
2022-12-31T22:28:47.983Z,3.00
2022-12-31T22:31:16.622Z,2.33
2022-12-31T22:33:43.942Z,3.60
2022-12-31T22:36:12.591Z,2.78
2022-12-31T22:38:39.052Z,2.70
2022-12-31T22:41:06.605Z,3.45
2022-12-31T22:43:34.135Z,5.80
2022-12-31T22:46:06.432Z,5.40
2022-12-31T22:48:32.947Z,3.25
2022-12-31T22:50:59.393Z,2.75
2022-12-31T22:53:25.858Z,3.50
2022-12-31T22:55:54.702Z,6.38
2022-12-31T22:58:22.265Z,5.32
2022-12-31T23:00:50.172Z,6.50
2022-12-31T23:03:16.876Z,55.20
2022-12-31T23:05:43.968Z,61.35
2022-12-31T23:08:20.557Z,42.88
2022-12-31T23:10:59.803Z,53.75
2022-12-31T23:13:50.682Z,52.28
2022-12-31T23:16:36.387Z,62.88
2022-12-31T23:19:24.453Z,113.20
2022-12-31T23:22:09.803Z,95.35
2022-12-31T23:24:36.262Z,106.63
2022-12-31T23:27:02.969Z,135.05
2022-12-31T23:29:29.481Z,39.65
2022-12-31T23:31:55.939Z,28.40
2022-12-31T23:34:22.591Z,16.17
2022-12-31T23:36:49.057Z,17.73
2022-12-31T23:39:15.441Z,16.30
2022-12-31T23:41:41.820Z,13.63
2022-12-31T23:44:08.338Z,11.85
2022-12-31T23:46:34.779Z,11.52
2022-12-31T23:49:01.177Z,9.90
2022-12-31T23:51:27.584Z,10.73
2022-12-31T23:53:56.020Z,10.77
2022-12-31T23:56:28.413Z,12.32
2022-12-31T23:58:55.936Z,9.48
